Kezdőlap
METAR-TAF:

METAR-TAF

Repülőterek :

Madison, Dél-Dakota, Amerikai Egyesült Államok

földrajzi szélesség: 44-00-59N, földrajzi hosszúság: 097-05-08W, magasság: 524 m

Jelenlegi meteorológiai megfigyelések

A jelentés 28 perccel ezelõtt készült, 21:35 UTC
Észak-északkeleti szél 13 kt széllökések: 18 kt
Hőmérséklet 22°C
Páratartalom 43%
Légköri nyomás 1006 hPa
Látótávolság: 16.1 km

METAR: KMDS 262135Z AUTO 02013G18KT 10SM 22/09 A2970 RMK AO2 TSNO

Idő: 16:03 (22:03 UTC)


TAF: hiányzik

Meteorológiai megfigyelések és előrejelzések több, mint 4000 repülőtéren (METAR és TAF jelentéseket).

A térképen piros és sárga pontok jelzik az elérhető meteorológiai állomásokat.

Mozgassa az egeret a pont fölött, hogy megjelenjen az állomás neve.

Azután kattintson az időjárási megfigyelések és előrejelzések megtekintéséhez.

A térkép megváltoztatása: kattintson a fekete keresztel jelölt zöld gombra ráközelítéshez, a vonallal jelölt zöld gombra távolításhoz, vagy a zöld nyilakra a szomszédos térképek eléréséhez.


METAR-TAF: